sensor_id;sensor_type;location;lat;lon;timestamp;P1;durP1;ratioP1;P2;durP2;ratioP2
13263;SDS011;6700;51.988;7.646;2022-08-21T00:02:21;8.80;;;4.83;;
13263;SDS011;6700;51.988;7.646;2022-08-21T00:04:50;6.20;;;3.73;;
13263;SDS011;6700;51.988;7.646;2022-08-21T00:07:23;5.90;;;3.93;;
13263;SDS011;6700;51.988;7.646;2022-08-21T00:09:51;8.00;;;4.23;;
13263;SDS011;6700;51.988;7.646;2022-08-21T00:12:22;7.80;;;3.23;;
13263;SDS011;6700;51.988;7.646;2022-08-21T00:14:49;6.40;;;3.23;;
13263;SDS011;6700;51.988;7.646;2022-08-21T00:17:22;7.20;;;4.00;;
13263;SDS011;6700;51.988;7.646;2022-08-21T00:19:49;9.13;;;4.30;;
13263;SDS011;6700;51.988;7.646;2022-08-21T00:22:17;6.77;;;3.30;;
13263;SDS011;6700;51.988;7.646;2022-08-21T00:24:44;7.83;;;3.57;;
13263;SDS011;6700;51.988;7.646;2022-08-21T00:27:12;7.73;;;3.90;;
13263;SDS011;6700;51.988;7.646;2022-08-21T00:29:39;7.43;;;4.37;;
13263;SDS011;6700;51.988;7.646;2022-08-21T00:32:06;9.00;;;4.00;;
13263;SDS011;6700;51.988;7.646;2022-08-21T00:34:33;6.13;;;4.03;;
13263;SDS011;6700;51.988;7.646;2022-08-21T00:37:00;10.80;;;4.00;;
13263;SDS011;6700;51.988;7.646;2022-08-21T00:39:27;10.03;;;3.77;;
13263;SDS011;6700;51.988;7.646;2022-08-21T00:41:54;8.03;;;5.07;;
13263;SDS011;6700;51.988;7.646;2022-08-21T00:44:21;9.33;;;4.53;;
13263;SDS011;6700;51.988;7.646;2022-08-21T00:46:48;10.93;;;4.40;;
13263;SDS011;6700;51.988;7.646;2022-08-21T00:49:15;9.27;;;3.93;;
13263;SDS011;6700;51.988;7.646;2022-08-21T00:51:44;10.23;;;4.07;;
13263;SDS011;6700;51.988;7.646;2022-08-21T00:54:16;8.70;;;4.20;;
13263;SDS011;6700;51.988;7.646;2022-08-21T00:56:45;6.53;;;4.10;;
13263;SDS011;6700;51.988;7.646;2022-08-21T00:59:16;5.10;;;3.93;;
13263;SDS011;6700;51.988;7.646;2022-08-21T01:01:45;6.13;;;3.57;;
13263;SDS011;6700;51.988;7.646;2022-08-21T01:04:12;12.67;;;5.33;;
13263;SDS011;6700;51.988;7.646;2022-08-21T01:06:39;9.63;;;3.93;;
13263;SDS011;6700;51.988;7.646;2022-08-21T01:09:06;10.63;;;4.50;;
13263;SDS011;6700;51.988;7.646;2022-08-21T01:11:33;9.07;;;3.90;;
13263;SDS011;6700;51.988;7.646;2022-08-21T01:14:00;9.57;;;4.13;;
13263;SDS011;6700;51.988;7.646;2022-08-21T01:16:27;7.40;;;3.60;;
13263;SDS011;6700;51.988;7.646;2022-08-21T01:18:55;5.60;;;4.40;;
13263;SDS011;6700;51.988;7.646;2022-08-21T01:21:23;6.33;;;3.57;;
13263;SDS011;6700;51.988;7.646;2022-08-21T01:23:54;9.90;;;4.07;;
13263;SDS011;6700;51.988;7.646;2022-08-21T01:26:27;7.27;;;4.43;;
13263;SDS011;6700;51.988;7.646;2022-08-21T01:29:03;6.43;;;3.47;;
13263;SDS011;6700;51.988;7.646;2022-08-21T01:31:36;4.43;;;3.43;;
13263;SDS011;6700;51.988;7.646;2022-08-21T01:34:04;7.87;;;4.30;;
13263;SDS011;6700;51.988;7.646;2022-08-21T01:36:31;3.83;;;3.33;;
13263;SDS011;6700;51.988;7.646;2022-08-21T01:38:59;6.53;;;4.20;;
13263;SDS011;6700;51.988;7.646;2022-08-21T01:41:26;8.23;;;4.50;;
13263;SDS011;6700;51.988;7.646;2022-08-21T01:43:53;6.83;;;4.27;;
13263;SDS011;6700;51.988;7.646;2022-08-21T01:46:20;8.83;;;4.20;;
13263;SDS011;6700;51.988;7.646;2022-08-21T01:48:47;9.07;;;4.60;;
13263;SDS011;6700;51.988;7.646;2022-08-21T01:51:15;7.63;;;4.47;;
13263;SDS011;6700;51.988;7.646;2022-08-21T01:53:42;7.57;;;4.57;;
13263;SDS011;6700;51.988;7.646;2022-08-21T01:56:10;8.83;;;4.60;;
13263;SDS011;6700;51.988;7.646;2022-08-21T01:58:40;8.57;;;5.10;;
13263;SDS011;6700;51.988;7.646;2022-08-21T02:01:08;13.37;;;4.33;;
13263;SDS011;6700;51.988;7.646;2022-08-21T02:03:36;9.43;;;5.03;;
13263;SDS011;6700;51.988;7.646;2022-08-21T02:06:04;5.53;;;4.83;;
13263;SDS011;6700;51.988;7.646;2022-08-21T02:08:33;7.40;;;4.40;;
13263;SDS011;6700;51.988;7.646;2022-08-21T02:11:00;9.23;;;5.13;;
13263;SDS011;6700;51.988;7.646;2022-08-21T02:13:27;7.70;;;4.83;;
13263;SDS011;6700;51.988;7.646;2022-08-21T02:15:54;7.27;;;5.17;;
13263;SDS011;6700;51.988;7.646;2022-08-21T02:18:23;5.83;;;3.90;;
13263;SDS011;6700;51.988;7.646;2022-08-21T02:20:50;9.07;;;4.60;;
13263;SDS011;6700;51.988;7.646;2022-08-21T02:23:23;6.83;;;4.70;;
13263;SDS011;6700;51.988;7.646;2022-08-21T02:25:56;9.27;;;4.83;;
13263;SDS011;6700;51.988;7.646;2022-08-21T02:28:24;9.47;;;4.70;;
13263;SDS011;6700;51.988;7.646;2022-08-21T02:30:53;8.27;;;5.40;;
13263;SDS011;6700;51.988;7.646;2022-08-21T02:33:23;9.40;;;5.57;;
13263;SDS011;6700;51.988;7.646;2022-08-21T02:35:51;11.53;;;4.97;;
13263;SDS011;6700;51.988;7.646;2022-08-21T02:38:21;12.07;;;5.03;;
13263;SDS011;6700;51.988;7.646;2022-08-21T02:40:50;11.00;;;4.60;;
13263;SDS011;6700;51.988;7.646;2022-08-21T02:43:19;5.77;;;4.70;;
13263;SDS011;6700;51.988;7.646;2022-08-21T02:45:49;7.53;;;4.37;;
13263;SDS011;6700;51.988;7.646;2022-08-21T02:48:17;9.73;;;5.40;;
13263;SDS011;6700;51.988;7.646;2022-08-21T02:50:48;11.37;;;5.00;;
13263;SDS011;6700;51.988;7.646;2022-08-21T02:53:22;9.90;;;4.40;;
13263;SDS011;6700;51.988;7.646;2022-08-21T02:55:50;9.17;;;5.07;;
13263;SDS011;6700;51.988;7.646;2022-08-21T02:58:24;8.77;;;4.70;;
13263;SDS011;6700;51.988;7.646;2022-08-21T03:00:57;12.33;;;4.63;;
13263;SDS011;6700;51.988;7.646;2022-08-21T03:03:25;7.53;;;4.80;;
13263;SDS011;6700;51.988;7.646;2022-08-21T03:05:54;6.83;;;4.83;;
13263;SDS011;6700;51.988;7.646;2022-08-21T03:08:21;8.73;;;4.97;;
13263;SDS011;6700;51.988;7.646;2022-08-21T03:10:52;7.60;;;5.20;;
13263;SDS011;6700;51.988;7.646;2022-08-21T03:13:19;6.13;;;4.90;;
13263;SDS011;6700;51.988;7.646;2022-08-21T03:15:49;7.37;;;4.63;;
13263;SDS011;6700;51.988;7.646;2022-08-21T03:18:16;6.47;;;4.93;;
13263;SDS011;6700;51.988;7.646;2022-08-21T03:20:44;6.83;;;4.30;;
13263;SDS011;6700;51.988;7.646;2022-08-21T03:23:14;11.07;;;4.93;;
13263;SDS011;6700;51.988;7.646;2022-08-21T03:25:44;6.17;;;4.50;;
13263;SDS011;6700;51.988;7.646;2022-08-21T03:28:17;10.67;;;5.10;;
13263;SDS011;6700;51.988;7.646;2022-08-21T03:30:46;10.27;;;4.90;;
13263;SDS011;6700;51.988;7.646;2022-08-21T03:33:15;7.20;;;5.60;;
13263;SDS011;6700;51.988;7.646;2022-08-21T03:35:50;9.60;;;4.67;;
13263;SDS011;6700;51.988;7.646;2022-08-21T03:38:24;7.93;;;5.27;;
13263;SDS011;6700;51.988;7.646;2022-08-21T03:40:52;7.07;;;5.23;;
13263;SDS011;6700;51.988;7.646;2022-08-21T03:43:19;7.80;;;5.00;;
13263;SDS011;6700;51.988;7.646;2022-08-21T03:45:46;11.17;;;5.17;;
13263;SDS011;6700;51.988;7.646;2022-08-21T03:48:13;9.10;;;6.00;;
13263;SDS011;6700;51.988;7.646;2022-08-21T03:50:41;7.13;;;5.10;;
13263;SDS011;6700;51.988;7.646;2022-08-21T03:53:11;6.83;;;5.00;;
13263;SDS011;6700;51.988;7.646;2022-08-21T03:55:46;11.93;;;5.50;;
13263;SDS011;6700;51.988;7.646;2022-08-21T03:58:22;12.50;;;5.30;;
13263;SDS011;6700;51.988;7.646;2022-08-21T04:00:55;7.73;;;5.07;;
13263;SDS011;6700;51.988;7.646;2022-08-21T04:03:24;10.63;;;5.97;;
13263;SDS011;6700;51.988;7.646;2022-08-21T04:05:51;10.13;;;5.50;;
13263;SDS011;6700;51.988;7.646;2022-08-21T04:08:18;8.37;;;6.03;;
13263;SDS011;6700;51.988;7.646;2022-08-21T04:10:46;14.57;;;6.73;;
13263;SDS011;6700;51.988;7.646;2022-08-21T04:13:16;15.37;;;6.43;;
13263;SDS011;6700;51.988;7.646;2022-08-21T04:15:42;7.47;;;6.17;;
13263;SDS011;6700;51.988;7.646;2022-08-21T04:18:09;10.30;;;7.50;;
13263;SDS011;6700;51.988;7.646;2022-08-21T04:20:37;9.27;;;6.50;;
13263;SDS011;6700;51.988;7.646;2022-08-21T04:23:05;9.03;;;5.83;;
13263;SDS011;6700;51.988;7.646;2022-08-21T04:25:32;12.57;;;7.27;;
13263;SDS011;6700;51.988;7.646;2022-08-21T04:27:59;11.70;;;7.40;;
13263;SDS011;6700;51.988;7.646;2022-08-21T04:30:25;9.33;;;7.23;;
13263;SDS011;6700;51.988;7.646;2022-08-21T04:32:55;9.23;;;6.70;;
13263;SDS011;6700;51.988;7.646;2022-08-21T04:35:24;11.67;;;7.17;;
13263;SDS011;6700;51.988;7.646;2022-08-21T04:37:53;10.40;;;7.63;;
13263;SDS011;6700;51.988;7.646;2022-08-21T04:40:20;9.60;;;7.47;;
13263;SDS011;6700;51.988;7.646;2022-08-21T04:42:49;12.30;;;8.17;;
13263;SDS011;6700;51.988;7.646;2022-08-21T04:45:25;11.70;;;7.87;;
13263;SDS011;6700;51.988;7.646;2022-08-21T04:47:58;16.80;;;9.43;;
13263;SDS011;6700;51.988;7.646;2022-08-21T04:50:34;14.20;;;8.70;;
13263;SDS011;6700;51.988;7.646;2022-08-21T04:53:31;13.40;;;8.43;;
13263;SDS011;6700;51.988;7.646;2022-08-21T04:56:01;10.77;;;8.27;;
13263;SDS011;6700;51.988;7.646;2022-08-21T04:58:34;12.23;;;8.40;;
13263;SDS011;6700;51.988;7.646;2022-08-21T05:01:04;11.40;;;8.30;;
13263;SDS011;6700;51.988;7.646;2022-08-21T05:03:34;12.77;;;8.03;;
13263;SDS011;6700;51.988;7.646;2022-08-21T05:06:06;12.83;;;8.23;;
13263;SDS011;6700;51.988;7.646;2022-08-21T05:08:35;11.57;;;9.37;;
13263;SDS011;6700;51.988;7.646;2022-08-21T05:11:04;10.53;;;8.50;;
13263;SDS011;6700;51.988;7.646;2022-08-21T05:13:32;17.27;;;9.73;;
13263;SDS011;6700;51.988;7.646;2022-08-21T05:15:59;9.10;;;8.13;;
13263;SDS011;6700;51.988;7.646;2022-08-21T05:18:26;14.97;;;8.53;;
13263;SDS011;6700;51.988;7.646;2022-08-21T05:20:53;9.00;;;7.90;;
13263;SDS011;6700;51.988;7.646;2022-08-21T05:23:20;16.10;;;9.60;;
13263;SDS011;6700;51.988;7.646;2022-08-21T05:25:47;10.50;;;8.37;;
13263;SDS011;6700;51.988;7.646;2022-08-21T05:28:14;11.03;;;8.47;;
13263;SDS011;6700;51.988;7.646;2022-08-21T05:30:41;11.53;;;7.93;;
13263;SDS011;6700;51.988;7.646;2022-08-21T05:33:07;14.20;;;9.67;;
13263;SDS011;6700;51.988;7.646;2022-08-21T05:35:34;14.20;;;9.60;;
13263;SDS011;6700;51.988;7.646;2022-08-21T05:38:02;9.67;;;8.50;;
13263;SDS011;6700;51.988;7.646;2022-08-21T05:40:30;11.73;;;9.33;;
13263;SDS011;6700;51.988;7.646;2022-08-21T05:42:58;12.17;;;9.57;;
13263;SDS011;6700;51.988;7.646;2022-08-21T05:45:28;13.53;;;9.97;;
13263;SDS011;6700;51.988;7.646;2022-08-21T05:48:15;13.07;;;8.80;;
13263;SDS011;6700;51.988;7.646;2022-08-21T05:50:46;9.77;;;8.77;;
13263;SDS011;6700;51.988;7.646;2022-08-21T05:53:14;9.80;;;8.27;;
13263;SDS011;6700;51.988;7.646;2022-08-21T05:55:43;13.23;;;8.93;;
13263;SDS011;6700;51.988;7.646;2022-08-21T05:58:16;15.23;;;8.57;;
13263;SDS011;6700;51.988;7.646;2022-08-21T06:00:44;9.80;;;8.77;;
13263;SDS011;6700;51.988;7.646;2022-08-21T06:03:15;16.37;;;9.53;;
13263;SDS011;6700;51.988;7.646;2022-08-21T06:05:47;15.60;;;7.97;;
13263;SDS011;6700;51.988;7.646;2022-08-21T06:08:14;11.07;;;8.37;;
13263;SDS011;6700;51.988;7.646;2022-08-21T06:10:42;12.27;;;8.27;;
13263;SDS011;6700;51.988;7.646;2022-08-21T06:13:10;14.87;;;8.80;;
13263;SDS011;6700;51.988;7.646;2022-08-21T06:15:37;13.63;;;8.70;;
13263;SDS011;6700;51.988;7.646;2022-08-21T06:18:04;12.50;;;8.60;;
13263;SDS011;6700;51.988;7.646;2022-08-21T06:20:31;14.83;;;8.10;;
13263;SDS011;6700;51.988;7.646;2022-08-21T06:22:59;14.03;;;7.83;;
13263;SDS011;6700;51.988;7.646;2022-08-21T06:25:26;14.63;;;8.37;;
13263;SDS011;6700;51.988;7.646;2022-08-21T06:27:59;13.47;;;7.83;;
13263;SDS011;6700;51.988;7.646;2022-08-21T06:30:27;10.67;;;7.17;;
13263;SDS011;6700;51.988;7.646;2022-08-21T06:32:54;11.57;;;7.83;;
13263;SDS011;6700;51.988;7.646;2022-08-21T06:35:21;14.73;;;8.53;;
13263;SDS011;6700;51.988;7.646;2022-08-21T06:37:50;17.00;;;7.10;;
13263;SDS011;6700;51.988;7.646;2022-08-21T06:40:17;12.60;;;7.67;;
13263;SDS011;6700;51.988;7.646;2022-08-21T06:42:44;12.57;;;8.50;;
13263;SDS011;6700;51.988;7.646;2022-08-21T06:45:12;8.63;;;7.27;;
13263;SDS011;6700;51.988;7.646;2022-08-21T06:47:40;12.20;;;7.37;;
13263;SDS011;6700;51.988;7.646;2022-08-21T06:50:07;11.33;;;7.13;;
13263;SDS011;6700;51.988;7.646;2022-08-21T06:52:35;13.07;;;7.30;;
13263;SDS011;6700;51.988;7.646;2022-08-21T06:55:07;9.33;;;7.13;;
13263;SDS011;6700;51.988;7.646;2022-08-21T06:57:35;8.73;;;6.37;;
13263;SDS011;6700;51.988;7.646;2022-08-21T07:00:03;10.90;;;6.60;;
13263;SDS011;6700;51.988;7.646;2022-08-21T07:02:31;12.03;;;6.53;;
13263;SDS011;6700;51.988;7.646;2022-08-21T07:04:59;12.30;;;6.73;;
13263;SDS011;6700;51.988;7.646;2022-08-21T07:07:40;9.20;;;5.90;;
13263;SDS011;6700;51.988;7.646;2022-08-21T07:10:08;7.27;;;5.47;;
13263;SDS011;6700;51.988;7.646;2022-08-21T07:12:47;5.93;;;4.93;;
13263;SDS011;6700;51.988;7.646;2022-08-21T07:15:16;9.23;;;4.83;;
13263;SDS011;6700;51.988;7.646;2022-08-21T07:17:43;10.30;;;4.40;;
13263;SDS011;6700;51.988;7.646;2022-08-21T07:20:10;12.07;;;5.83;;
13263;SDS011;6700;51.988;7.646;2022-08-21T07:22:38;12.10;;;4.57;;
13263;SDS011;6700;51.988;7.646;2022-08-21T07:25:07;10.37;;;4.20;;
13263;SDS011;6700;51.988;7.646;2022-08-21T07:27:34;6.37;;;3.47;;
13263;SDS011;6700;51.988;7.646;2022-08-21T07:30:02;6.33;;;3.90;;
13263;SDS011;6700;51.988;7.646;2022-08-21T07:32:30;8.33;;;3.60;;
13263;SDS011;6700;51.988;7.646;2022-08-21T07:34:57;7.13;;;4.33;;
13263;SDS011;6700;51.988;7.646;2022-08-21T07:37:24;6.97;;;3.27;;
13263;SDS011;6700;51.988;7.646;2022-08-21T07:39:51;5.50;;;3.23;;
13263;SDS011;6700;51.988;7.646;2022-08-21T07:42:18;4.73;;;2.97;;
13263;SDS011;6700;51.988;7.646;2022-08-21T07:44:44;6.40;;;3.50;;
13263;SDS011;6700;51.988;7.646;2022-08-21T07:47:14;6.53;;;3.53;;
13263;SDS011;6700;51.988;7.646;2022-08-21T07:50:01;10.07;;;4.40;;
13263;SDS011;6700;51.988;7.646;2022-08-21T07:52:30;8.33;;;4.70;;
13263;SDS011;6700;51.988;7.646;2022-08-21T07:54:57;8.90;;;4.33;;
13263;SDS011;6700;51.988;7.646;2022-08-21T07:57:30;7.47;;;4.00;;
13263;SDS011;6700;51.988;7.646;2022-08-21T07:59:57;6.40;;;3.78;;
13263;SDS011;6700;51.988;7.646;2022-08-21T08:02:24;6.28;;;3.85;;
13263;SDS011;6700;51.988;7.646;2022-08-21T08:04:52;9.50;;;3.88;;
13263;SDS011;6700;51.988;7.646;2022-08-21T08:07:19;7.45;;;4.05;;
13263;SDS011;6700;51.988;7.646;2022-08-21T08:09:46;9.40;;;4.35;;
13263;SDS011;6700;51.988;7.646;2022-08-21T08:12:13;10.13;;;4.95;;
13263;SDS011;6700;51.988;7.646;2022-08-21T08:14:40;7.07;;;4.97;;
13263;SDS011;6700;51.988;7.646;2022-08-21T08:17:07;9.45;;;5.20;;
13263;SDS011;6700;51.988;7.646;2022-08-21T08:19:34;12.85;;;5.10;;
13263;SDS011;6700;51.988;7.646;2022-08-21T08:22:01;10.32;;;5.10;;
13263;SDS011;6700;51.988;7.646;2022-08-21T08:24:39;9.43;;;4.80;;
13263;SDS011;6700;51.988;7.646;2022-08-21T08:27:06;7.93;;;5.18;;
13263;SDS011;6700;51.988;7.646;2022-08-21T08:29:33;10.40;;;6.15;;
13263;SDS011;6700;51.988;7.646;2022-08-21T08:31:59;12.68;;;6.43;;
13263;SDS011;6700;51.988;7.646;2022-08-21T08:34:26;12.65;;;6.38;;
13263;SDS011;6700;51.988;7.646;2022-08-21T08:36:53;14.50;;;6.80;;
13263;SDS011;6700;51.988;7.646;2022-08-21T08:39:21;9.85;;;6.13;;
13263;SDS011;6700;51.988;7.646;2022-08-21T08:41:56;10.25;;;6.10;;
13263;SDS011;6700;51.988;7.646;2022-08-21T08:44:53;9.85;;;6.55;;
13263;SDS011;6700;51.988;7.646;2022-08-21T08:47:24;13.05;;;6.20;;
13263;SDS011;6700;51.988;7.646;2022-08-21T08:49:55;9.60;;;5.95;;
13263;SDS011;6700;51.988;7.646;2022-08-21T08:52:36;9.75;;;5.90;;
13263;SDS011;6700;51.988;7.646;2022-08-21T08:57:37;11.77;;;6.75;;
13263;SDS011;6700;51.988;7.646;2022-08-21T09:00:08;11.18;;;6.05;;
13263;SDS011;6700;51.988;7.646;2022-08-21T09:02:41;9.50;;;6.07;;
13263;SDS011;6700;51.988;7.646;2022-08-21T09:05:18;13.18;;;6.00;;
13263;SDS011;6700;51.988;7.646;2022-08-21T09:11:05;14.15;;;5.97;;
13263;SDS011;6700;51.988;7.646;2022-08-21T09:14:22;6.60;;;4.80;;
13263;SDS011;6700;51.988;7.646;2022-08-21T09:16:56;10.68;;;6.25;;
13263;SDS011;6700;51.988;7.646;2022-08-21T09:19:59;7.60;;;4.28;;
13263;SDS011;6700;51.988;7.646;2022-08-21T09:25:56;6.85;;;4.28;;
13263;SDS011;6700;51.988;7.646;2022-08-21T09:28:31;8.20;;;5.07;;
13263;SDS011;6700;51.988;7.646;2022-08-21T09:31:06;10.45;;;4.88;;
13263;SDS011;6700;51.988;7.646;2022-08-21T09:33:36;7.28;;;4.40;;
13263;SDS011;6700;51.988;7.646;2022-08-21T09:36:04;7.20;;;3.60;;
13263;SDS011;6700;51.988;7.646;2022-08-21T09:38:32;6.95;;;3.53;;
13263;SDS011;6700;51.988;7.646;2022-08-21T09:43:31;8.98;;;3.35;;
13263;SDS011;6700;51.988;7.646;2022-08-21T09:48:40;7.65;;;3.03;;
13263;SDS011;6700;51.988;7.646;2022-08-21T09:51:14;6.50;;;3.17;;
13263;SDS011;6700;51.988;7.646;2022-08-21T09:53:48;6.15;;;3.45;;
13263;SDS011;6700;51.988;7.646;2022-08-21T09:56:36;8.45;;;3.53;;
13263;SDS011;6700;51.988;7.646;2022-08-21T10:02:14;5.38;;;3.20;;
13263;SDS011;6700;51.988;7.646;2022-08-21T10:07:49;5.15;;;2.75;;
13263;SDS011;6700;51.988;7.646;2022-08-21T10:18:41;8.23;;;3.45;;
13263;SDS011;6700;51.988;7.646;2022-08-21T10:21:11;8.05;;;3.80;;
13263;SDS011;6700;51.988;7.646;2022-08-21T10:32:37;8.23;;;3.30;;
13263;SDS011;6700;51.988;7.646;2022-08-21T10:35:13;6.80;;;3.10;;
13263;SDS011;6700;51.988;7.646;2022-08-21T10:46:57;8.32;;;2.53;;
13263;SDS011;6700;51.988;7.646;2022-08-21T10:57:43;5.60;;;2.60;;
13263;SDS011;6700;51.988;7.646;2022-08-21T11:00:21;5.03;;;2.60;;
13263;SDS011;6700;51.988;7.646;2022-08-21T11:03:11;8.40;;;2.85;;
13263;SDS011;6700;51.988;7.646;2022-08-21T11:05:43;4.30;;;2.53;;
13263;SDS011;6700;51.988;7.646;2022-08-21T11:08:39;5.18;;;2.15;;
13263;SDS011;6700;51.988;7.646;2022-08-21T11:11:12;4.60;;;2.10;;
13263;SDS011;6700;51.988;7.646;2022-08-21T11:13:55;4.72;;;2.40;;
13263;SDS011;6700;51.988;7.646;2022-08-21T11:16:57;5.15;;;2.35;;
13263;SDS011;6700;51.988;7.646;2022-08-21T11:22:26;3.58;;;2.00;;
13263;SDS011;6700;51.988;7.646;2022-08-21T11:25:37;5.00;;;2.33;;
13263;SDS011;6700;51.988;7.646;2022-08-21T11:28:09;4.97;;;1.92;;
13263;SDS011;6700;51.988;7.646;2022-08-21T11:42:02;4.00;;;2.47;;
13263;SDS011;6700;51.988;7.646;2022-08-21T11:44:50;3.05;;;1.95;;
13263;SDS011;6700;51.988;7.646;2022-08-21T11:55:45;3.83;;;1.92;;
13263;SDS011;6700;51.988;7.646;2022-08-21T11:58:17;2.60;;;1.75;;
13263;SDS011;6700;51.988;7.646;2022-08-21T12:06:08;2.95;;;1.92;;
13263;SDS011;6700;51.988;7.646;2022-08-21T12:08:42;5.07;;;1.60;;
13263;SDS011;6700;51.988;7.646;2022-08-21T12:13:54;4.88;;;2.00;;
13263;SDS011;6700;51.988;7.646;2022-08-21T12:16:33;3.80;;;1.95;;
13263;SDS011;6700;51.988;7.646;2022-08-21T12:19:12;4.18;;;1.80;;
13263;SDS011;6700;51.988;7.646;2022-08-21T12:24:38;2.85;;;1.75;;
13263;SDS011;6700;51.988;7.646;2022-08-21T12:30:00;4.70;;;2.15;;
13263;SDS011;6700;51.988;7.646;2022-08-21T12:35:24;4.28;;;1.67;;
13263;SDS011;6700;51.988;7.646;2022-08-21T12:41:17;3.10;;;1.80;;
13263;SDS011;6700;51.988;7.646;2022-08-21T12:43:29;2.80;;;1.60;;
13263;SDS011;6700;51.988;7.646;2022-08-21T12:46:06;4.28;;;1.88;;
13263;SDS011;6700;51.988;7.646;2022-08-21T12:48:51;4.85;;;1.67;;
13263;SDS011;6700;51.988;7.646;2022-08-21T12:51:49;6.63;;;1.75;;
13263;SDS011;6700;51.988;7.646;2022-08-21T12:54:28;3.10;;;1.67;;
13263;SDS011;6700;51.988;7.646;2022-08-21T12:57:05;3.30;;;1.92;;
13263;SDS011;6700;51.988;7.646;2022-08-21T12:59:36;3.25;;;1.50;;
13263;SDS011;6700;51.988;7.646;2022-08-21T13:02:11;3.80;;;1.70;;
13263;SDS011;6700;51.988;7.646;2022-08-21T13:04:45;4.70;;;1.80;;
13263;SDS011;6700;51.988;7.646;2022-08-21T13:07:15;4.65;;;1.77;;
13263;SDS011;6700;51.988;7.646;2022-08-21T13:09:51;1.77;;;1.38;;
13263;SDS011;6700;51.988;7.646;2022-08-21T13:12:21;2.92;;;1.70;;
13263;SDS011;6700;51.988;7.646;2022-08-21T13:14:58;2.35;;;1.40;;
13263;SDS011;6700;51.988;7.646;2022-08-21T13:17:30;2.35;;;1.70;;
13263;SDS011;6700;51.988;7.646;2022-08-21T13:22:40;3.65;;;1.70;;
13263;SDS011;6700;51.988;7.646;2022-08-21T13:25:09;4.85;;;1.92;;
13263;SDS011;6700;51.988;7.646;2022-08-21T13:27:39;2.85;;;1.77;;
13263;SDS011;6700;51.988;7.646;2022-08-21T13:30:20;4.15;;;1.60;;
13263;SDS011;6700;51.988;7.646;2022-08-21T13:32:49;1.60;;;1.50;;
13263;SDS011;6700;51.988;7.646;2022-08-21T13:35:24;4.15;;;1.95;;
13263;SDS011;6700;51.988;7.646;2022-08-21T13:37:53;2.63;;;1.35;;
13263;SDS011;6700;51.988;7.646;2022-08-21T13:40:25;3.90;;;1.67;;
13263;SDS011;6700;51.988;7.646;2022-08-21T13:42:55;5.28;;;1.63;;
13263;SDS011;6700;51.988;7.646;2022-08-21T13:45:24;3.08;;;2.08;;
13263;SDS011;6700;51.988;7.646;2022-08-21T13:47:59;3.70;;;1.60;;
13263;SDS011;6700;51.988;7.646;2022-08-21T13:50:32;2.55;;;1.60;;
13263;SDS011;6700;51.988;7.646;2022-08-21T13:53:03;2.67;;;1.73;;
13263;SDS011;6700;51.988;7.646;2022-08-21T13:55:38;5.68;;;1.80;;
13263;SDS011;6700;51.988;7.646;2022-08-21T13:58:08;2.72;;;2.10;;
13263;SDS011;6700;51.988;7.646;2022-08-21T14:00:46;3.90;;;2.00;;
13263;SDS011;6700;51.988;7.646;2022-08-21T14:03:30;5.72;;;1.92;;
13263;SDS011;6700;51.988;7.646;2022-08-21T14:05:59;3.47;;;1.65;;
13263;SDS011;6700;51.988;7.646;2022-08-21T14:10:57;3.38;;;1.83;;
13263;SDS011;6700;51.988;7.646;2022-08-21T14:13:28;5.65;;;2.25;;
13263;SDS011;6700;51.988;7.646;2022-08-21T14:16:09;3.53;;;2.03;;
13263;SDS011;6700;51.988;7.646;2022-08-21T14:21:31;2.72;;;1.67;;
13263;SDS011;6700;51.988;7.646;2022-08-21T14:24:08;5.20;;;1.70;;
13263;SDS011;6700;51.988;7.646;2022-08-21T14:26:36;3.85;;;1.73;;
13263;SDS011;6700;51.988;7.646;2022-08-21T14:29:12;2.08;;;1.55;;
13263;SDS011;6700;51.988;7.646;2022-08-21T14:31:41;8.23;;;2.10;;
13263;SDS011;6700;51.988;7.646;2022-08-21T14:34:10;2.08;;;1.60;;
13263;SDS011;6700;51.988;7.646;2022-08-21T14:36:45;2.33;;;1.40;;
13263;SDS011;6700;51.988;7.646;2022-08-21T14:39:13;6.60;;;2.00;;
13263;SDS011;6700;51.988;7.646;2022-08-21T14:41:39;5.95;;;1.58;;
13263;SDS011;6700;51.988;7.646;2022-08-21T14:44:08;2.00;;;1.45;;
13263;SDS011;6700;51.988;7.646;2022-08-21T14:46:36;2.88;;;1.70;;
13263;SDS011;6700;51.988;7.646;2022-08-21T14:49:21;2.67;;;1.48;;
13263;SDS011;6700;51.988;7.646;2022-08-21T14:51:53;3.83;;;1.52;;
13263;SDS011;6700;51.988;7.646;2022-08-21T14:54:25;13.27;;;2.63;;
13263;SDS011;6700;51.988;7.646;2022-08-21T14:57:04;5.25;;;1.80;;
13263;SDS011;6700;51.988;7.646;2022-08-21T14:59:35;2.05;;;1.52;;
13263;SDS011;6700;51.988;7.646;2022-08-21T15:02:03;4.13;;;1.90;;
13263;SDS011;6700;51.988;7.646;2022-08-21T15:04:30;12.07;;;2.63;;
13263;SDS011;6700;51.988;7.646;2022-08-21T15:06:58;2.45;;;1.73;;
13263;SDS011;6700;51.988;7.646;2022-08-21T15:09:25;7.40;;;2.10;;
13263;SDS011;6700;51.988;7.646;2022-08-21T15:11:53;2.72;;;1.80;;
13263;SDS011;6700;51.988;7.646;2022-08-21T15:14:26;5.03;;;1.95;;
13263;SDS011;6700;51.988;7.646;2022-08-21T15:16:55;5.22;;;1.77;;
13263;SDS011;6700;51.988;7.646;2022-08-21T15:19:23;3.50;;;1.75;;
13263;SDS011;6700;51.988;7.646;2022-08-21T15:21:50;25.55;;;4.32;;
13263;SDS011;6700;51.988;7.646;2022-08-21T15:24:17;2.63;;;1.88;;
13263;SDS011;6700;51.988;7.646;2022-08-21T15:26:44;3.20;;;1.45;;
13263;SDS011;6700;51.988;7.646;2022-08-21T15:29:11;6.15;;;2.08;;
13263;SDS011;6700;51.988;7.646;2022-08-21T15:31:49;7.75;;;2.22;;
13263;SDS011;6700;51.988;7.646;2022-08-21T15:34:21;6.28;;;1.73;;
13263;SDS011;6700;51.988;7.646;2022-08-21T15:36:52;9.18;;;2.17;;
13263;SDS011;6700;51.988;7.646;2022-08-21T15:39:22;6.68;;;2.63;;
13263;SDS011;6700;51.988;7.646;2022-08-21T15:41:56;4.30;;;2.00;;
13263;SDS011;6700;51.988;7.646;2022-08-21T15:44:24;6.15;;;2.00;;
13263;SDS011;6700;51.988;7.646;2022-08-21T15:46:53;5.47;;;1.75;;
13263;SDS011;6700;51.988;7.646;2022-08-21T15:49:20;3.95;;;1.90;;
13263;SDS011;6700;51.988;7.646;2022-08-21T15:51:47;2.97;;;2.03;;
13263;SDS011;6700;51.988;7.646;2022-08-21T15:54:15;4.60;;;1.77;;
13263;SDS011;6700;51.988;7.646;2022-08-21T15:56:43;4.43;;;1.98;;
13263;SDS011;6700;51.988;7.646;2022-08-21T15:59:15;4.53;;;1.85;;
13263;SDS011;6700;51.988;7.646;2022-08-21T16:01:50;7.82;;;2.00;;
13263;SDS011;6700;51.988;7.646;2022-08-21T16:04:21;4.60;;;2.03;;
13263;SDS011;6700;51.988;7.646;2022-08-21T16:06:51;2.97;;;1.45;;
13263;SDS011;6700;51.988;7.646;2022-08-21T16:09:25;2.72;;;1.60;;
13263;SDS011;6700;51.988;7.646;2022-08-21T16:11:51;3.47;;;1.90;;
13263;SDS011;6700;51.988;7.646;2022-08-21T16:14:19;3.80;;;1.83;;
13263;SDS011;6700;51.988;7.646;2022-08-21T16:16:46;2.67;;;1.63;;
13263;SDS011;6700;51.988;7.646;2022-08-21T16:19:13;5.55;;;2.30;;
13263;SDS011;6700;51.988;7.646;2022-08-21T16:21:40;6.82;;;1.70;;
13263;SDS011;6700;51.988;7.646;2022-08-21T16:24:07;5.65;;;1.90;;
13263;SDS011;6700;51.988;7.646;2022-08-21T16:26:33;4.97;;;1.88;;
13263;SDS011;6700;51.988;7.646;2022-08-21T16:29:01;4.15;;;1.77;;
13263;SDS011;6700;51.988;7.646;2022-08-21T16:31:29;2.13;;;1.60;;
13263;SDS011;6700;51.988;7.646;2022-08-21T16:33:57;3.85;;;1.48;;
13263;SDS011;6700;51.988;7.646;2022-08-21T16:36:25;7.95;;;2.05;;
13263;SDS011;6700;51.988;7.646;2022-08-21T16:38:56;3.35;;;1.60;;
13263;SDS011;6700;51.988;7.646;2022-08-21T16:41:25;2.78;;;1.95;;
13263;SDS011;6700;51.988;7.646;2022-08-21T16:43:55;2.75;;;1.73;;
13263;SDS011;6700;51.988;7.646;2022-08-21T16:46:22;1.98;;;1.52;;
13263;SDS011;6700;51.988;7.646;2022-08-21T16:48:50;4.32;;;2.15;;
13263;SDS011;6700;51.988;7.646;2022-08-21T16:51:18;2.03;;;1.50;;
13263;SDS011;6700;51.988;7.646;2022-08-21T16:53:45;2.40;;;1.48;;
13263;SDS011;6700;51.988;7.646;2022-08-21T16:56:12;4.10;;;1.50;;
13263;SDS011;6700;51.988;7.646;2022-08-21T16:58:42;2.38;;;1.60;;
13263;SDS011;6700;51.988;7.646;2022-08-21T17:01:13;2.17;;;1.42;;
13263;SDS011;6700;51.988;7.646;2022-08-21T17:03:44;2.25;;;1.50;;
13263;SDS011;6700;51.988;7.646;2022-08-21T17:06:13;3.13;;;1.52;;